sensor_id;sensor_type;location;lat;lon;timestamp;temperature;humidity
23259;DHT22;11798;51.528;7.240;2023-04-05T00:01:25;3.60;99.90
23259;DHT22;11798;51.528;7.240;2023-04-05T00:03:58;3.50;99.90
23259;DHT22;11798;51.528;7.240;2023-04-05T00:06:25;3.50;99.90
23259;DHT22;11798;51.528;7.240;2023-04-05T00:09:02;3.40;99.90
23259;DHT22;11798;51.528;7.240;2023-04-05T00:11:30;3.40;99.90
23259;DHT22;11798;51.528;7.240;2023-04-05T00:13:59;3.30;99.90
23259;DHT22;11798;51.528;7.240;2023-04-05T00:16:26;3.30;99.90
23259;DHT22;11798;51.528;7.240;2023-04-05T00:18:53;3.30;99.90
23259;DHT22;11798;51.528;7.240;2023-04-05T00:21:23;3.30;99.90
23259;DHT22;11798;51.528;7.240;2023-04-05T00:23:50;3.20;99.90
23259;DHT22;11798;51.528;7.240;2023-04-05T00:26:17;3.20;99.90
23259;DHT22;11798;51.528;7.240;2023-04-05T00:28:43;3.10;99.90
23259;DHT22;11798;51.528;7.240;2023-04-05T00:31:08;3.10;99.90
23259;DHT22;11798;51.528;7.240;2023-04-05T00:33:34;3.10;99.90
23259;DHT22;11798;51.528;7.240;2023-04-05T00:38:35;3.00;99.90
23259;DHT22;11798;51.528;7.240;2023-04-05T00:41:01;3.00;99.90
23259;DHT22;11798;51.528;7.240;2023-04-05T00:43:27;3.00;99.90
23259;DHT22;11798;51.528;7.240;2023-04-05T00:45:52;2.90;99.90
23259;DHT22;11798;51.528;7.240;2023-04-05T00:48:19;2.90;99.90
23259;DHT22;11798;51.528;7.240;2023-04-05T00:50:48;2.80;99.90
23259;DHT22;11798;51.528;7.240;2023-04-05T00:53:15;2.80;99.90
23259;DHT22;11798;51.528;7.240;2023-04-05T00:55:40;2.80;99.90
23259;DHT22;11798;51.528;7.240;2023-04-05T00:58:06;2.80;99.90
23259;DHT22;11798;51.528;7.240;2023-04-05T01:00:37;2.70;99.90
23259;DHT22;11798;51.528;7.240;2023-04-05T01:03:05;2.70;99.90
23259;DHT22;11798;51.528;7.240;2023-04-05T01:08:16;2.60;99.90
23259;DHT22;11798;51.528;7.240;2023-04-05T01:10:47;2.60;99.90
23259;DHT22;11798;51.528;7.240;2023-04-05T01:13:15;2.50;99.90
23259;DHT22;11798;51.528;7.240;2023-04-05T01:15:41;2.40;99.90
23259;DHT22;11798;51.528;7.240;2023-04-05T01:18:07;2.40;99.90
23259;DHT22;11798;51.528;7.240;2023-04-05T01:20:40;2.40;99.90
23259;DHT22;11798;51.528;7.240;2023-04-05T01:31:45;2.30;99.90
23259;DHT22;11798;51.528;7.240;2023-04-05T01:35:17;2.30;99.90
23259;DHT22;11798;51.528;7.240;2023-04-05T01:37:19;2.20;99.90
23259;DHT22;11798;51.528;7.240;2023-04-05T01:39:48;2.20;99.90
23259;DHT22;11798;51.528;7.240;2023-04-05T01:42:20;2.10;99.90
23259;DHT22;11798;51.528;7.240;2023-04-05T01:44:49;2.00;99.90
23259;DHT22;11798;51.528;7.240;2023-04-05T01:47:15;2.00;99.90
23259;DHT22;11798;51.528;7.240;2023-04-05T01:49:40;1.90;99.90
23259;DHT22;11798;51.528;7.240;2023-04-05T01:52:06;1.90;99.90
23259;DHT22;11798;51.528;7.240;2023-04-05T01:54:31;1.90;99.90
23259;DHT22;11798;51.528;7.240;2023-04-05T01:56:57;1.90;99.90
23259;DHT22;11798;51.528;7.240;2023-04-05T01:59:23;1.90;99.90
23259;DHT22;11798;51.528;7.240;2023-04-05T02:01:49;1.90;99.90
23259;DHT22;11798;51.528;7.240;2023-04-05T02:04:15;1.90;99.90
23259;DHT22;11798;51.528;7.240;2023-04-05T02:06:40;1.90;99.90
23259;DHT22;11798;51.528;7.240;2023-04-05T02:09:06;1.90;99.90
23259;DHT22;11798;51.528;7.240;2023-04-05T02:11:32;1.90;99.90
23259;DHT22;11798;51.528;7.240;2023-04-05T02:13:57;1.90;99.90
23259;DHT22;11798;51.528;7.240;2023-04-05T02:16:23;1.80;99.90
23259;DHT22;11798;51.528;7.240;2023-04-05T02:18:52;1.80;99.90
23259;DHT22;11798;51.528;7.240;2023-04-05T02:21:22;1.80;99.90
23259;DHT22;11798;51.528;7.240;2023-04-05T02:23:48;1.70;99.90
23259;DHT22;11798;51.528;7.240;2023-04-05T02:26:14;1.70;99.90
23259;DHT22;11798;51.528;7.240;2023-04-05T02:28:40;1.70;99.90
23259;DHT22;11798;51.528;7.240;2023-04-05T02:31:10;1.60;99.90
23259;DHT22;11798;51.528;7.240;2023-04-05T02:33:36;1.60;99.90
23259;DHT22;11798;51.528;7.240;2023-04-05T02:36:09;1.60;99.90
23259;DHT22;11798;51.528;7.240;2023-04-05T02:38:35;1.50;99.90
23259;DHT22;11798;51.528;7.240;2023-04-05T02:41:01;1.40;99.90
23259;DHT22;11798;51.528;7.240;2023-04-05T02:43:27;1.40;99.90
23259;DHT22;11798;51.528;7.240;2023-04-05T02:45:53;1.40;99.90
23259;DHT22;11798;51.528;7.240;2023-04-05T02:48:19;1.20;99.90
23259;DHT22;11798;51.528;7.240;2023-04-05T02:50:49;1.20;99.90
23259;DHT22;11798;51.528;7.240;2023-04-05T02:53:16;1.20;99.90
23259;DHT22;11798;51.528;7.240;2023-04-05T02:55:41;1.20;99.90
23259;DHT22;11798;51.528;7.240;2023-04-05T02:58:07;1.20;99.90
23259;DHT22;11798;51.528;7.240;2023-04-05T03:00:33;1.30;99.90
23259;DHT22;11798;51.528;7.240;2023-04-05T03:02:59;1.30;99.90
23259;DHT22;11798;51.528;7.240;2023-04-05T03:05:25;1.30;99.90
23259;DHT22;11798;51.528;7.240;2023-04-05T03:07:51;1.30;99.90
23259;DHT22;11798;51.528;7.240;2023-04-05T03:10:20;1.20;99.90
23259;DHT22;11798;51.528;7.240;2023-04-05T03:12:47;1.20;99.90
23259;DHT22;11798;51.528;7.240;2023-04-05T03:15:12;1.20;99.90
23259;DHT22;11798;51.528;7.240;2023-04-05T03:17:38;1.10;99.90
23259;DHT22;11798;51.528;7.240;2023-04-05T03:20:04;1.00;99.90
23259;DHT22;11798;51.528;7.240;2023-04-05T03:22:33;1.00;99.90
23259;DHT22;11798;51.528;7.240;2023-04-05T03:24:59;1.00;99.90
23259;DHT22;11798;51.528;7.240;2023-04-05T03:27:24;1.10;99.90
23259;DHT22;11798;51.528;7.240;2023-04-05T03:29:50;1.10;99.90
23259;DHT22;11798;51.528;7.240;2023-04-05T03:32:16;1.10;99.90
23259;DHT22;11798;51.528;7.240;2023-04-05T03:34:41;1.10;99.90
23259;DHT22;11798;51.528;7.240;2023-04-05T03:37:08;1.10;99.90
23259;DHT22;11798;51.528;7.240;2023-04-05T03:39:33;1.10;99.90
23259;DHT22;11798;51.528;7.240;2023-04-05T03:41:59;1.10;99.90
23259;DHT22;11798;51.528;7.240;2023-04-05T03:44:25;1.00;99.90
23259;DHT22;11798;51.528;7.240;2023-04-05T03:46:51;1.00;99.90
23259;DHT22;11798;51.528;7.240;2023-04-05T03:49:16;1.10;99.90
23259;DHT22;11798;51.528;7.240;2023-04-05T03:51:44;1.10;99.90
23259;DHT22;11798;51.528;7.240;2023-04-05T03:54:10;1.10;99.90
23259;DHT22;11798;51.528;7.240;2023-04-05T03:56:36;1.10;99.90
23259;DHT22;11798;51.528;7.240;2023-04-05T03:59:01;1.00;99.90
23259;DHT22;11798;51.528;7.240;2023-04-05T04:01:28;1.00;99.90
23259;DHT22;11798;51.528;7.240;2023-04-05T04:03:53;1.00;99.90
23259;DHT22;11798;51.528;7.240;2023-04-05T04:06:19;0.90;99.90
23259;DHT22;11798;51.528;7.240;2023-04-05T04:08:45;0.90;99.90
23259;DHT22;11798;51.528;7.240;2023-04-05T04:11:10;0.90;99.90
23259;DHT22;11798;51.528;7.240;2023-04-05T04:13:36;0.90;99.90
23259;DHT22;11798;51.528;7.240;2023-04-05T04:16:01;0.90;99.90
23259;DHT22;11798;51.528;7.240;2023-04-05T04:18:28;0.90;99.90
23259;DHT22;11798;51.528;7.240;2023-04-05T04:20:53;0.90;99.90
23259;DHT22;11798;51.528;7.240;2023-04-05T04:23:19;1.00;99.90
23259;DHT22;11798;51.528;7.240;2023-04-05T04:25:44;1.00;99.90
23259;DHT22;11798;51.528;7.240;2023-04-05T04:28:10;1.00;99.90
23259;DHT22;11798;51.528;7.240;2023-04-05T04:30:36;0.90;99.90
23259;DHT22;11798;51.528;7.240;2023-04-05T04:33:02;1.00;99.90
23259;DHT22;11798;51.528;7.240;2023-04-05T04:35:29;1.00;99.90
23259;DHT22;11798;51.528;7.240;2023-04-05T04:40:31;0.90;99.90
23259;DHT22;11798;51.528;7.240;2023-04-05T04:43:06;0.90;99.90
23259;DHT22;11798;51.528;7.240;2023-04-05T04:45:34;0.90;99.90
23259;DHT22;11798;51.528;7.240;2023-04-05T04:48:02;0.90;99.90
23259;DHT22;11798;51.528;7.240;2023-04-05T04:50:29;0.90;99.90
23259;DHT22;11798;51.528;7.240;2023-04-05T04:52:57;0.90;99.90
23259;DHT22;11798;51.528;7.240;2023-04-05T04:55:22;0.90;99.90
23259;DHT22;11798;51.528;7.240;2023-04-05T04:57:50;0.80;99.90
23259;DHT22;11798;51.528;7.240;2023-04-05T05:00:16;0.90;99.90
23259;DHT22;11798;51.528;7.240;2023-04-05T05:02:42;0.90;99.90
23259;DHT22;11798;51.528;7.240;2023-04-05T05:05:08;0.80;99.90
23259;DHT22;11798;51.528;7.240;2023-04-05T05:07:34;0.80;99.90
23259;DHT22;11798;51.528;7.240;2023-04-05T05:10:00;0.80;99.90
23259;DHT22;11798;51.528;7.240;2023-04-05T05:12:26;0.90;99.90
23259;DHT22;11798;51.528;7.240;2023-04-05T05:14:51;0.80;99.90
23259;DHT22;11798;51.528;7.240;2023-04-05T05:17:17;0.90;99.90
23259;DHT22;11798;51.528;7.240;2023-04-05T05:19:44;0.90;99.90
23259;DHT22;11798;51.528;7.240;2023-04-05T05:22:09;0.90;99.90
23259;DHT22;11798;51.528;7.240;2023-04-05T05:24:35;0.90;99.90
23259;DHT22;11798;51.528;7.240;2023-04-05T05:27:01;0.90;99.90
23259;DHT22;11798;51.528;7.240;2023-04-05T05:29:26;0.90;99.90
23259;DHT22;11798;51.528;7.240;2023-04-05T05:31:52;0.90;99.90
23259;DHT22;11798;51.528;7.240;2023-04-05T05:34:17;0.90;99.90
23259;DHT22;11798;51.528;7.240;2023-04-05T05:36:43;0.90;99.90
23259;DHT22;11798;51.528;7.240;2023-04-05T05:39:09;0.80;99.90
23259;DHT22;11798;51.528;7.240;2023-04-05T05:41:34;0.80;99.90
23259;DHT22;11798;51.528;7.240;2023-04-05T05:44:00;0.80;99.90
23259;DHT22;11798;51.528;7.240;2023-04-05T05:46:26;0.80;99.90
23259;DHT22;11798;51.528;7.240;2023-04-05T05:48:51;0.80;99.90
23259;DHT22;11798;51.528;7.240;2023-04-05T05:51:17;0.90;99.90
23259;DHT22;11798;51.528;7.240;2023-04-05T05:53:43;0.90;99.90
23259;DHT22;11798;51.528;7.240;2023-04-05T05:56:08;1.00;99.90
23259;DHT22;11798;51.528;7.240;2023-04-05T05:58:34;1.00;99.90
23259;DHT22;11798;51.528;7.240;2023-04-05T06:01:01;1.00;99.90
23259;DHT22;11798;51.528;7.240;2023-04-05T06:03:28;1.10;99.90
23259;DHT22;11798;51.528;7.240;2023-04-05T06:05:55;1.10;99.90
23259;DHT22;11798;51.528;7.240;2023-04-05T06:08:21;1.20;99.90
23259;DHT22;11798;51.528;7.240;2023-04-05T06:10:47;1.30;99.90
23259;DHT22;11798;51.528;7.240;2023-04-05T06:13:12;1.40;99.90
23259;DHT22;11798;51.528;7.240;2023-04-05T06:15:38;1.50;99.90
23259;DHT22;11798;51.528;7.240;2023-04-05T06:18:04;1.50;99.90
23259;DHT22;11798;51.528;7.240;2023-04-05T06:20:29;1.60;99.90
23259;DHT22;11798;51.528;7.240;2023-04-05T06:22:55;1.70;99.90
23259;DHT22;11798;51.528;7.240;2023-04-05T06:25:20;1.80;99.90
23259;DHT22;11798;51.528;7.240;2023-04-05T06:27:46;1.80;99.90
23259;DHT22;11798;51.528;7.240;2023-04-05T06:30:11;1.90;99.90
23259;DHT22;11798;51.528;7.240;2023-04-05T06:32:37;2.00;99.90
23259;DHT22;11798;51.528;7.240;2023-04-05T06:35:02;2.10;99.90
23259;DHT22;11798;51.528;7.240;2023-04-05T06:37:29;2.30;99.90
23259;DHT22;11798;51.528;7.240;2023-04-05T06:39:54;2.40;99.90
23259;DHT22;11798;51.528;7.240;2023-04-05T06:42:20;2.60;99.90
23259;DHT22;11798;51.528;7.240;2023-04-05T06:44:45;2.70;99.90
23259;DHT22;11798;51.528;7.240;2023-04-05T06:47:11;2.80;99.90
23259;DHT22;11798;51.528;7.240;2023-04-05T06:49:36;2.90;99.90
23259;DHT22;11798;51.528;7.240;2023-04-05T06:52:02;3.00;99.90
23259;DHT22;11798;51.528;7.240;2023-04-05T06:54:31;3.10;99.90
23259;DHT22;11798;51.528;7.240;2023-04-05T06:56:57;3.10;99.90
23259;DHT22;11798;51.528;7.240;2023-04-05T06:59:23;3.20;99.90
23259;DHT22;11798;51.528;7.240;2023-04-05T07:01:48;3.30;99.90
23259;DHT22;11798;51.528;7.240;2023-04-05T07:04:14;3.40;99.90
23259;DHT22;11798;51.528;7.240;2023-04-05T07:06:40;3.50;99.90
23259;DHT22;11798;51.528;7.240;2023-04-05T07:09:05;3.60;99.90
23259;DHT22;11798;51.528;7.240;2023-04-05T07:11:31;3.70;99.90
23259;DHT22;11798;51.528;7.240;2023-04-05T07:13:58;3.80;99.90
23259;DHT22;11798;51.528;7.240;2023-04-05T07:16:24;3.90;99.90
23259;DHT22;11798;51.528;7.240;2023-04-05T07:18:50;4.00;99.90
23259;DHT22;11798;51.528;7.240;2023-04-05T07:21:15;4.00;99.90
23259;DHT22;11798;51.528;7.240;2023-04-05T07:23:41;4.20;99.90
23259;DHT22;11798;51.528;7.240;2023-04-05T07:26:07;4.30;99.90
23259;DHT22;11798;51.528;7.240;2023-04-05T07:28:34;4.40;99.90
23259;DHT22;11798;51.528;7.240;2023-04-05T07:31:04;4.50;99.90
23259;DHT22;11798;51.528;7.240;2023-04-05T07:33:30;4.60;99.90
23259;DHT22;11798;51.528;7.240;2023-04-05T07:35:56;4.60;99.90
23259;DHT22;11798;51.528;7.240;2023-04-05T07:38:22;4.70;99.90
23259;DHT22;11798;51.528;7.240;2023-04-05T07:40:48;4.80;99.90
23259;DHT22;11798;51.528;7.240;2023-04-05T07:43:15;4.90;99.90
23259;DHT22;11798;51.528;7.240;2023-04-05T07:45:41;5.10;99.90
23259;DHT22;11798;51.528;7.240;2023-04-05T07:48:07;5.10;99.90
23259;DHT22;11798;51.528;7.240;2023-04-05T07:50:36;5.20;99.90
23259;DHT22;11798;51.528;7.240;2023-04-05T07:53:04;5.30;99.90
23259;DHT22;11798;51.528;7.240;2023-04-05T07:55:30;5.40;99.90
23259;DHT22;11798;51.528;7.240;2023-04-05T07:57:55;5.50;99.90
23259;DHT22;11798;51.528;7.240;2023-04-05T08:00:22;5.60;99.90
23259;DHT22;11798;51.528;7.240;2023-04-05T08:02:48;5.70;99.90
23259;DHT22;11798;51.528;7.240;2023-04-05T08:05:14;5.80;99.90
23259;DHT22;11798;51.528;7.240;2023-04-05T08:07:40;5.80;99.90
23259;DHT22;11798;51.528;7.240;2023-04-05T08:10:06;5.90;99.90
23259;DHT22;11798;51.528;7.240;2023-04-05T08:12:33;6.00;99.90
23259;DHT22;11798;51.528;7.240;2023-04-05T08:14:59;6.00;99.90
23259;DHT22;11798;51.528;7.240;2023-04-05T08:17:25;6.10;99.90
23259;DHT22;11798;51.528;7.240;2023-04-05T08:19:53;6.10;99.90
23259;DHT22;11798;51.528;7.240;2023-04-05T08:22:19;6.10;99.90
23259;DHT22;11798;51.528;7.240;2023-04-05T08:24:45;6.20;99.90
23259;DHT22;11798;51.528;7.240;2023-04-05T08:27:10;6.20;99.90
23259;DHT22;11798;51.528;7.240;2023-04-05T08:29:36;6.40;99.90
23259;DHT22;11798;51.528;7.240;2023-04-05T08:32:03;6.40;99.90
23259;DHT22;11798;51.528;7.240;2023-04-05T08:34:29;6.40;99.90
23259;DHT22;11798;51.528;7.240;2023-04-05T08:36:58;6.40;99.90
23259;DHT22;11798;51.528;7.240;2023-04-05T08:39:24;6.50;99.90
23259;DHT22;11798;51.528;7.240;2023-04-05T08:41:59;6.50;99.90
23259;DHT22;11798;51.528;7.240;2023-04-05T08:44:29;6.60;99.90
23259;DHT22;11798;51.528;7.240;2023-04-05T08:46:55;6.60;99.90
23259;DHT22;11798;51.528;7.240;2023-04-05T08:49:22;6.70;99.90
23259;DHT22;11798;51.528;7.240;2023-04-05T08:51:48;6.70;99.90
23259;DHT22;11798;51.528;7.240;2023-04-05T08:54:14;6.80;99.90
23259;DHT22;11798;51.528;7.240;2023-04-05T08:56:41;6.90;99.90
23259;DHT22;11798;51.528;7.240;2023-04-05T08:59:09;6.90;99.90
23259;DHT22;11798;51.528;7.240;2023-04-05T09:01:44;7.00;99.90
23259;DHT22;11798;51.528;7.240;2023-04-05T09:04:21;7.00;99.90
23259;DHT22;11798;51.528;7.240;2023-04-05T09:06:49;7.10;99.90
23259;DHT22;11798;51.528;7.240;2023-04-05T09:09:15;7.20;99.90
23259;DHT22;11798;51.528;7.240;2023-04-05T09:11:45;7.30;99.90
23259;DHT22;11798;51.528;7.240;2023-04-05T09:14:10;7.30;99.90
23259;DHT22;11798;51.528;7.240;2023-04-05T09:16:38;7.40;99.90
23259;DHT22;11798;51.528;7.240;2023-04-05T09:19:04;7.40;99.90
23259;DHT22;11798;51.528;7.240;2023-04-05T09:24:29;7.40;99.90
23259;DHT22;11798;51.528;7.240;2023-04-05T09:27:25;7.50;99.90
23259;DHT22;11798;51.528;7.240;2023-04-05T09:29:50;7.50;99.90
23259;DHT22;11798;51.528;7.240;2023-04-05T09:32:17;7.60;99.90
23259;DHT22;11798;51.528;7.240;2023-04-05T09:34:44;7.60;99.90
23259;DHT22;11798;51.528;7.240;2023-04-05T09:37:18;7.70;99.90
23259;DHT22;11798;51.528;7.240;2023-04-05T09:39:48;7.80;99.90
23259;DHT22;11798;51.528;7.240;2023-04-05T09:42:16;7.80;99.90
23259;DHT22;11798;51.528;7.240;2023-04-05T09:44:58;7.90;99.90
23259;DHT22;11798;51.528;7.240;2023-04-05T09:47:30;7.90;99.90
23259;DHT22;11798;51.528;7.240;2023-04-05T09:49:58;7.90;99.90
23259;DHT22;11798;51.528;7.240;2023-04-05T09:52:25;8.10;99.90
23259;DHT22;11798;51.528;7.240;2023-04-05T09:54:54;8.10;99.90
23259;DHT22;11798;51.528;7.240;2023-04-05T09:57:23;8.20;99.90
23259;DHT22;11798;51.528;7.240;2023-04-05T09:59:51;8.20;99.90
23259;DHT22;11798;51.528;7.240;2023-04-05T10:02:17;8.10;99.90
23259;DHT22;11798;51.528;7.240;2023-04-05T10:04:44;8.10;99.90
23259;DHT22;11798;51.528;7.240;2023-04-05T10:07:12;8.30;99.90
23259;DHT22;11798;51.528;7.240;2023-04-05T10:09:42;8.20;99.90
23259;DHT22;11798;51.528;7.240;2023-04-05T10:12:09;8.20;99.90
23259;DHT22;11798;51.528;7.240;2023-04-05T10:14:37;8.20;99.90
23259;DHT22;11798;51.528;7.240;2023-04-05T10:17:22;8.10;99.90
23259;DHT22;11798;51.528;7.240;2023-04-05T10:22:40;8.30;99.90
23259;DHT22;11798;51.528;7.240;2023-04-05T10:27:47;8.40;99.90
23259;DHT22;11798;51.528;7.240;2023-04-05T10:30:16;8.50;99.90
23259;DHT22;11798;51.528;7.240;2023-04-05T10:33:09;8.50;99.90
23259;DHT22;11798;51.528;7.240;2023-04-05T10:38:25;8.60;99.90
23259;DHT22;11798;51.528;7.240;2023-04-05T10:41:11;8.70;99.90
23259;DHT22;11798;51.528;7.240;2023-04-05T10:43:39;8.80;99.90
23259;DHT22;11798;51.528;7.240;2023-04-05T10:46:06;8.90;99.90
23259;DHT22;11798;51.528;7.240;2023-04-05T10:48:56;8.90;99.90
23259;DHT22;11798;51.528;7.240;2023-04-05T10:51:24;8.80;99.90
23259;DHT22;11798;51.528;7.240;2023-04-05T10:53:51;8.80;99.90
23259;DHT22;11798;51.528;7.240;2023-04-05T10:56:17;8.80;99.90
23259;DHT22;11798;51.528;7.240;2023-04-05T10:58:45;8.80;99.90
23259;DHT22;11798;51.528;7.240;2023-04-05T11:01:12;8.90;99.90
23259;DHT22;11798;51.528;7.240;2023-04-05T11:03:44;8.80;99.90
23259;DHT22;11798;51.528;7.240;2023-04-05T11:09:17;8.80;99.90
23259;DHT22;11798;51.528;7.240;2023-04-05T11:11:46;8.90;99.90
23259;DHT22;11798;51.528;7.240;2023-04-05T11:14:37;8.90;99.90
23259;DHT22;11798;51.528;7.240;2023-04-05T11:17:24;8.90;99.90
23259;DHT22;11798;51.528;7.240;2023-04-05T11:19:50;9.00;99.90
23259;DHT22;11798;51.528;7.240;2023-04-05T11:22:27;9.10;99.90
23259;DHT22;11798;51.528;7.240;2023-04-05T11:24:59;9.20;99.90
23259;DHT22;11798;51.528;7.240;2023-04-05T11:29:53;9.20;99.90
23259;DHT22;11798;51.528;7.240;2023-04-05T11:32:19;9.30;99.90
23259;DHT22;11798;51.528;7.240;2023-04-05T11:34:59;9.30;99.90
23259;DHT22;11798;51.528;7.240;2023-04-05T11:37:54;9.30;99.90
23259;DHT22;11798;51.528;7.240;2023-04-05T11:40:38;9.30;99.90
23259;DHT22;11798;51.528;7.240;2023-04-05T11:43:11;9.40;99.90
23259;DHT22;11798;51.528;7.240;2023-04-05T11:45:40;9.40;99.90
23259;DHT22;11798;51.528;7.240;2023-04-05T11:48:12;9.40;99.90
23259;DHT22;11798;51.528;7.240;2023-04-05T11:50:39;9.30;99.90
23259;DHT22;11798;51.528;7.240;2023-04-05T11:53:16;9.40;99.90
23259;DHT22;11798;51.528;7.240;2023-04-05T11:55:46;9.40;99.90
23259;DHT22;11798;51.528;7.240;2023-04-05T11:58:17;9.60;99.90
23259;DHT22;11798;51.528;7.240;2023-04-05T12:00:44;9.50;99.90
23259;DHT22;11798;51.528;7.240;2023-04-05T12:03:12;9.60;99.90
23259;DHT22;11798;51.528;7.240;2023-04-05T12:05:51;9.50;99.90
23259;DHT22;11798;51.528;7.240;2023-04-05T12:08:18;9.60;99.90
23259;DHT22;11798;51.528;7.240;2023-04-05T12:10:55;9.70;99.90
23259;DHT22;11798;51.528;7.240;2023-04-05T12:13:29;9.80;99.90
23259;DHT22;11798;51.528;7.240;2023-04-05T12:16:00;10.00;99.90
23259;DHT22;11798;51.528;7.240;2023-04-05T12:18:28;10.10;99.90
23259;DHT22;11798;51.528;7.240;2023-04-05T12:20:54;10.20;99.90
23259;DHT22;11798;51.528;7.240;2023-04-05T12:23:21;10.30;99.90
23259;DHT22;11798;51.528;7.240;2023-04-05T12:25:53;10.30;99.90
23259;DHT22;11798;51.528;7.240;2023-04-05T12:28:19;10.30;99.90
23259;DHT22;11798;51.528;7.240;2023-04-05T12:30:52;10.30;99.90
23259;DHT22;11798;51.528;7.240;2023-04-05T12:33:29;10.30;99.90
23259;DHT22;11798;51.528;7.240;2023-04-05T12:35:55;10.20;99.90
23259;DHT22;11798;51.528;7.240;2023-04-05T12:38:24;10.30;99.90
23259;DHT22;11798;51.528;7.240;2023-04-05T12:40:59;10.10;99.90
23259;DHT22;11798;51.528;7.240;2023-04-05T12:43:36;10.10;99.90
23259;DHT22;11798;51.528;7.240;2023-04-05T12:46:07;10.10;99.90
23259;DHT22;11798;51.528;7.240;2023-04-05T12:48:36;10.10;99.90
23259;DHT22;11798;51.528;7.240;2023-04-05T12:51:13;10.10;99.90
23259;DHT22;11798;51.528;7.240;2023-04-05T12:53:44;10.20;99.90
23259;DHT22;11798;51.528;7.240;2023-04-05T12:56:11;10.30;99.90
23259;DHT22;11798;51.528;7.240;2023-04-05T12:58:37;10.40;99.90
23259;DHT22;11798;51.528;7.240;2023-04-05T13:01:04;10.40;99.90
23259;DHT22;11798;51.528;7.240;2023-04-05T13:03:30;10.40;99.90
23259;DHT22;11798;51.528;7.240;2023-04-05T13:05:56;10.50;99.90
23259;DHT22;11798;51.528;7.240;2023-04-05T13:08:23;10.50;99.90
23259;DHT22;11798;51.528;7.240;2023-04-05T13:10:49;10.50;99.90
23259;DHT22;11798;51.528;7.240;2023-04-05T13:13:15;10.50;99.90
23259;DHT22;11798;51.528;7.240;2023-04-05T13:15:42;10.40;99.90
23259;DHT22;11798;51.528;7.240;2023-04-05T13:18:08;10.30;99.90
23259;DHT22;11798;51.528;7.240;2023-04-05T13:20:34;10.20;99.90
23259;DHT22;11798;51.528;7.240;2023-04-05T13:23:01;10.20;99.90
23259;DHT22;11798;51.528;7.240;2023-04-05T13:25:27;10.20;99.90
23259;DHT22;11798;51.528;7.240;2023-04-05T13:27:52;10.20;99.90
23259;DHT22;11798;51.528;7.240;2023-04-05T13:30:18;10.20;99.90
23259;DHT22;11798;51.528;7.240;2023-04-05T13:32:44;10.30;99.90
23259;DHT22;11798;51.528;7.240;2023-04-05T13:35:10;10.40;99.90
23259;DHT22;11798;51.528;7.240;2023-04-05T13:37:36;10.40;99.90
23259;DHT22;11798;51.528;7.240;2023-04-05T13:40:02;10.40;99.90
23259;DHT22;11798;51.528;7.240;2023-04-05T13:42:28;10.40;99.90
23259;DHT22;11798;51.528;7.240;2023-04-05T13:44:54;10.30;99.90
23259;DHT22;11798;51.528;7.240;2023-04-05T13:47:20;10.30;99.90
23259;DHT22;11798;51.528;7.240;2023-04-05T13:49:45;10.20;99.90
23259;DHT22;11798;51.528;7.240;2023-04-05T13:52:11;10.20;99.90
23259;DHT22;11798;51.528;7.240;2023-04-05T13:54:37;10.10;99.90
23259;DHT22;11798;51.528;7.240;2023-04-05T13:57:03;10.00;99.90
23259;DHT22;11798;51.528;7.240;2023-04-05T13:59:28;10.20;99.90
23259;DHT22;11798;51.528;7.240;2023-04-05T14:01:54;10.30;99.90
23259;DHT22;11798;51.528;7.240;2023-04-05T14:04:20;10.30;99.90
23259;DHT22;11798;51.528;7.240;2023-04-05T14:06:45;10.30;99.90
23259;DHT22;11798;51.528;7.240;2023-04-05T14:09:11;10.30;99.90
23259;DHT22;11798;51.528;7.240;2023-04-05T14:11:37;10.30;99.90
23259;DHT22;11798;51.528;7.240;2023-04-05T14:14:03;10.20;99.90
23259;DHT22;11798;51.528;7.240;2023-04-05T14:16:29;10.20;99.90
23259;DHT22;11798;51.528;7.240;2023-04-05T14:18:55;10.20;99.90
23259;DHT22;11798;51.528;7.240;2023-04-05T14:21:21;10.30;99.90
23259;DHT22;11798;51.528;7.240;2023-04-05T14:23:48;10.40;99.90
23259;DHT22;11798;51.528;7.240;2023-04-05T14:26:17;10.50;99.90
23259;DHT22;11798;51.528;7.240;2023-04-05T14:28:43;10.40;99.90
23259;DHT22;11798;51.528;7.240;2023-04-05T14:31:08;10.40;99.90
23259;DHT22;11798;51.528;7.240;2023-04-05T14:33:34;10.40;99.90
23259;DHT22;11798;51.528;7.240;2023-04-05T14:36:00;10.40;99.90
23259;DHT22;11798;51.528;7.240;2023-04-05T14:38:25;10.40;99.90
23259;DHT22;11798;51.528;7.240;2023-04-05T14:40:51;10.50;99.90
23259;DHT22;11798;51.528;7.240;2023-04-05T14:43:17;10.50;99.90
23259;DHT22;11798;51.528;7.240;2023-04-05T14:45:42;10.60;99.90
23259;DHT22;11798;51.528;7.240;2023-04-05T14:48:08;10.70;99.90
23259;DHT22;11798;51.528;7.240;2023-04-05T14:50:33;10.70;99.90
23259;DHT22;11798;51.528;7.240;2023-04-05T14:52:59;10.80;99.90
23259;DHT22;11798;51.528;7.240;2023-04-05T14:55:26;10.90;99.90
23259;DHT22;11798;51.528;7.240;2023-04-05T14:57:52;11.00;99.90
23259;DHT22;11798;51.528;7.240;2023-04-05T15:00:18;11.00;99.90
23259;DHT22;11798;51.528;7.240;2023-04-05T15:02:44;11.10;99.90
23259;DHT22;11798;51.528;7.240;2023-04-05T15:05:10;11.20;99.90
23259;DHT22;11798;51.528;7.240;2023-04-05T15:07:36;11.40;99.90
23259;DHT22;11798;51.528;7.240;2023-04-05T15:10:02;11.70;99.90
23259;DHT22;11798;51.528;7.240;2023-04-05T15:12:28;11.60;99.90
23259;DHT22;11798;51.528;7.240;2023-04-05T15:14:54;11.80;99.90
23259;DHT22;11798;51.528;7.240;2023-04-05T15:17:20;12.00;99.90
23259;DHT22;11798;51.528;7.240;2023-04-05T15:19:46;12.20;99.90
23259;DHT22;11798;51.528;7.240;2023-04-05T15:22:12;12.60;99.90
23259;DHT22;11798;51.528;7.240;2023-04-05T15:24:38;12.90;99.90
23259;DHT22;11798;51.528;7.240;2023-04-05T15:27:08;13.20;99.90
23259;DHT22;11798;51.528;7.240;2023-04-05T15:29:34;13.30;99.90
23259;DHT22;11798;51.528;7.240;2023-04-05T15:32:00;13.60;99.90
23259;DHT22;11798;51.528;7.240;2023-04-05T15:34:28;13.80;99.90
23259;DHT22;11798;51.528;7.240;2023-04-05T15:36:54;13.90;99.90
23259;DHT22;11798;51.528;7.240;2023-04-05T15:39:20;14.20;99.90
23259;DHT22;11798;51.528;7.240;2023-04-05T15:41:46;14.50;99.90
23259;DHT22;11798;51.528;7.240;2023-04-05T15:44:13;15.00;99.90
23259;DHT22;11798;51.528;7.240;2023-04-05T15:46:38;15.20;99.90
23259;DHT22;11798;51.528;7.240;2023-04-05T15:49:05;15.40;99.90
23259;DHT22;11798;51.528;7.240;2023-04-05T15:51:32;16.00;99.90
23259;DHT22;11798;51.528;7.240;2023-04-05T15:53:58;16.40;99.90
23259;DHT22;11798;51.528;7.240;2023-04-05T15:56:23;16.80;99.90
23259;DHT22;11798;51.528;7.240;2023-04-05T15:58:49;16.80;99.90
23259;DHT22;11798;51.528;7.240;2023-04-05T16:01:15;16.90;99.90
23259;DHT22;11798;51.528;7.240;2023-04-05T16:03:41;16.70;99.90
23259;DHT22;11798;51.528;7.240;2023-04-05T16:06:07;17.10;99.90
23259;DHT22;11798;51.528;7.240;2023-04-05T16:08:32;17.50;99.90
23259;DHT22;11798;51.528;7.240;2023-04-05T16:10:58;18.20;99.90
23259;DHT22;11798;51.528;7.240;2023-04-05T16:13:24;18.00;99.90
23259;DHT22;11798;51.528;7.240;2023-04-05T16:15:50;16.30;99.90
23259;DHT22;11798;51.528;7.240;2023-04-05T16:18:15;15.30;99.90